Pagrindinis puslapis
METAR-TAF:

METAR-TAF

Oro uostai :

Stokholmas-Skavsta, Švedija

platuma: 58-47N, ilguma: 016-55E, Aukštis: 43 m

Dabartinis oras

Ataskaita buvo paskelbta 36 minutes, ne 08:20 UTC
Vėjas 4 kt iš Šiaurės Vakarų, svyruoja nuo Vakarų ir Šiaurės
Temperatūra -5°C
Drėgmė 93%
Slėgis 1007 hPa
Matomumas: 1800 m
rūkana

METAR: ESKN 070820Z 32004KT 280V350 1800 BR VV002 M05/M06 Q1007

Laikas: 09:56 (08:56 UTC)

Prognozė

Ataskaita buvo paskelbta 26 minutes, ne 08:30 UTC
Prognozė galioja nuo 07 metu 09 UTC su 08 metu 09 UTC
Vėjas 5 kt iš Šiaurės Vakarų
Matomumas 10 km arba daugiau
Mažai debesys ne aukštis 300 ft
Laikinai
nuo 07 metu 09 UTC su 07 metu 11 UTC
Su prošvaistėmis ne aukštis 300 ft

TAF: ESKN 070830Z 0709/0809 32005KT 9999 FEW003 TEMPO 0709/0711 BKN003

Orai ataskaitas ir orų prognozės (METAR, TAF).

turimą stotys yra geltonos ir raudonos taškus žemėlapyje.

Perkelti pele per norėdami pamatyti stoties vardą.

Tada spustelėkite, norėdami matyti oro stebėjimo ir prognozės.

Norėdami pakeisti žemėlapį: spustelėkite ant žalios mygtukų su juodo kryžiaus žemyn,; žalią mygtuką su brūkšneliu, jei norite nutolinti; arba žalių rodyklių gretimoms žemėlapius.


METAR-TAF: